Time;durP1;ratioP1;P1;durP2;ratioP2;P2;SDS_P1;SDS_P2;PMS_P1;PMS_P2;Temp;Humidity;BMP_temperature;BMP_pressure;BME280_temperature;BME280_humidity;BME280_pressure;Samples;Min_cycle;Max_cycle;Signal;HPM_P1;HPM_P2
2021/03/07 00:03:46;;;;;;;12.60;5.65;;;-0.10;99.90;;;;;;6631882;89;20503;-79
2021/03/07 00:13:48;;;;;;;13.07;6.28;;;-0.20;99.90;;;;;;6646600;89;20186;-78
2021/03/07 00:23:48;;;;;;;14.60;6.45;;;-0.30;99.90;;;;;;6667330;89;20230;-79
2021/03/07 00:33:49;;;;;;;13.32;6.43;;;-0.50;99.90;;;;;;6667389;89;20979;-79
2021/03/07 00:43:49;;;;;;;13.40;6.40;;;-0.50;99.90;;;;;;6665122;89;20212;-80
2021/03/07 00:53:51;;;;;;;12.15;6.72;;;-0.80;99.90;;;;;;6648187;89;20149;-79
2021/03/07 01:03:51;;;;;;;14.02;6.12;;;-0.80;99.90;;;;;;6647757;89;20588;-81
2021/03/07 01:13:52;;;;;;;13.60;5.70;;;-0.70;99.90;;;;;;6647547;89;20207;-79
2021/03/07 01:23:52;;;;;;;13.85;6.07;;;-0.80;99.90;;;;;;6662586;89;20197;-78
2021/03/07 01:33:56;;;;;;;11.43;6.03;;;-0.90;99.90;;;;;;6667268;89;20172;-80
2021/03/07 01:43:57;;;;;;;12.88;6.28;;;-0.90;99.90;;;;;;6665292;89;20177;-80
2021/03/07 01:54:05;;;;;;;14.73;6.32;;;-0.80;99.90;;;;;;6632286;89;20182;-80
2021/03/07 02:04:06;;;;;;;13.55;6.03;;;-1.00;99.90;;;;;;6615556;89;20143;-81
2021/03/07 02:14:09;;;;;;;12.40;6.15;;;-1.20;99.90;;;;;;6615668;89;20198;-80
2021/03/07 02:24:12;;;;;;;12.37;5.90;;;-1.30;99.90;;;;;;6608906;89;20150;-80
2021/03/07 02:34:54;;;;;;;14.87;6.70;;;-1.30;99.90;;;;;;6586872;79;20236;-76
2021/03/07 02:45:08;;;;;;;13.02;6.20;;;-1.20;99.90;;;;;;6667171;89;20675;-76
2021/03/07 02:55:11;;;;;;;13.85;6.25;;;-1.30;99.90;;;;;;6666479;89;20207;-75
2021/03/07 03:05:12;;;;;;;13.52;5.95;;;-1.50;99.90;;;;;;6666808;89;20232;-76
2021/03/07 03:15:13;;;;;;;12.40;5.55;;;-1.60;99.90;;;;;;6667268;89;20191;-77
2021/03/07 03:25:15;;;;;;;11.98;5.25;;;-1.50;99.90;;;;;;6665323;89;20191;-76
2021/03/07 03:35:17;;;;;;;10.45;5.10;;;-1.60;99.90;;;;;;6669350;89;20188;-75
2021/03/07 03:45:18;;;;;;;15.52;4.82;;;-1.60;99.90;;;;;;6671464;89;20200;-76
2021/03/07 03:55:24;;;;;;;9.55;4.85;;;-1.90;99.90;;;;;;6663802;89;20197;-75
2021/03/07 04:05:27;;;;;;;11.33;4.80;;;-1.90;99.90;;;;;;6645959;89;20208;-76
2021/03/07 04:15:28;;;;;;;10.85;4.70;;;-2.00;99.90;;;;;;6653688;89;20729;-76
2021/03/07 04:25:29;;;;;;;11.07;4.97;;;-2.10;99.90;;;;;;6653014;89;20225;-75
2021/03/07 04:35:31;;;;;;;10.02;4.82;;;-2.10;99.90;;;;;;6658900;89;20245;-76
2021/03/07 04:45:33;;;;;;;10.20;4.62;;;-2.20;99.90;;;;;;6651717;89;20190;-76
2021/03/07 04:55:33;;;;;;;12.70;5.05;;;-2.30;99.90;;;;;;6667241;89;20298;-76
2021/03/07 05:05:34;;;;;;;9.90;4.70;;;-2.30;99.90;;;;;;6667265;89;20195;-76
2021/03/07 05:15:34;;;;;;;10.52;4.90;;;-2.30;99.90;;;;;;6652157;89;20287;-75
2021/03/07 05:25:35;;;;;;;10.57;4.90;;;-2.30;99.90;;;;;;6651795;89;20712;-75
2021/03/07 05:35:35;;;;;;;13.68;5.53;;;-2.60;99.90;;;;;;6656006;89;20515;-75
2021/03/07 05:45:36;;;;;;;17.23;5.57;;;-2.50;99.90;;;;;;6667657;89;20568;-75
2021/03/07 05:55:38;;;;;;;12.27;5.70;;;-2.80;99.90;;;;;;6667085;89;20220;-75
2021/03/07 06:05:40;;;;;;;11.63;5.18;;;-2.90;99.90;;;;;;6666504;89;20207;-75
2021/03/07 06:15:44;;;;;;;10.35;5.35;;;-2.90;99.90;;;;;;6666913;89;20214;-76
2021/03/07 06:25:46;;;;;;;14.63;5.97;;;-2.90;99.90;;;;;;6666884;89;20317;-75
2021/03/07 06:35:46;;;;;;;15.20;5.35;;;-3.00;99.90;;;;;;6667000;89;20208;-75
2021/03/07 06:45:47;;;;;;;12.32;5.32;;;-2.90;99.90;;;;;;6666353;89;20744;-75
2021/03/07 06:55:48;;;;;;;12.37;6.03;;;-2.90;99.90;;;;;;6666161;89;20208;-75
2021/03/07 07:05:51;;;;;;;11.70;5.82;;;-2.60;99.90;;;;;;6661663;89;20235;-75
2021/03/07 07:16:03;;;;;;;11.70;5.90;;;-2.20;99.90;;;;;;6665310;89;20220;-75
2021/03/07 07:26:04;;;;;;;12.82;6.05;;;-2.00;99.90;;;;;;6662009;89;20200;-76
2021/03/07 07:36:06;;;;;;;11.98;5.75;;;-1.40;99.90;;;;;;6658498;89;20213;-76
2021/03/07 07:46:12;;;;;;;11.90;6.40;;;-0.80;99.90;;;;;;6662264;89;20204;-76
2021/03/07 07:56:40;;;;;;;10.93;5.35;;;-0.10;99.90;;;;;;6668151;89;20211;-75
2021/03/07 08:06:43;;;;;;;10.48;5.18;;;0.90;99.90;;;;;;6661225;89;20231;-75
2021/03/07 08:16:44;;;;;;;11.20;5.60;;;2.00;99.90;;;;;;6661882;89;20308;-76
2021/03/07 08:27:06;;;;;;;10.32;5.90;;;3.90;99.90;;;;;;6658338;89;20640;-77
2021/03/07 08:37:15;;;;;;;11.30;5.97;;;5.50;99.90;;;;;;6697136;88;20164;-80
2021/03/07 08:47:15;;;;;;;9.48;5.75;;;6.00;99.90;;;;;;6694574;88;20295;-81
2021/03/07 08:57:16;;;;;;;12.07;6.65;;;6.20;99.90;;;;;;6700467;88;20876;-81
2021/03/07 09:07:30;;;;;;;10.65;6.47;;;6.10;99.40;;;;;;6690656;88;20839;-80
2021/03/07 09:17:32;;;;;;;11.00;6.18;;;6.00;99.30;;;;;;6683209;89;20192;-81
2021/03/07 09:27:35;;;;;;;12.48;6.55;;;7.50;97.10;;;;;;6664027;89;20791;-81
2021/03/07 09:37:36;;;;;;;11.52;6.68;;;8.20;96.10;;;;;;6663471;89;20343;-82
2021/03/07 09:47:38;;;;;;;10.60;6.32;;;8.50;94.70;;;;;;6663978;89;20157;-83
2021/03/07 09:57:39;;;;;;;9.73;6.05;;;9.60;92.10;;;;;;6674325;89;20750;-77
2021/03/07 10:07:40;;;;;;;10.07;6.15;;;9.80;87.10;;;;;;6677983;89;20177;-81
2021/03/07 10:17:42;;;;;;;9.82;6.05;;;10.20;85.10;;;;;;6656556;89;20736;-81
2021/03/07 10:27:55;;;;;;;9.35;5.82;;;11.40;77.30;;;;;;6662982;89;20346;-80
2021/03/07 10:37:55;;;;;;;11.68;5.97;;;11.90;72.50;;;;;;6671535;89;20192;-80
2021/03/07 10:48:13;;;;;;;11.75;5.72;;;12.60;69.20;;;;;;6679335;89;20747;-79
2021/03/07 10:58:14;;;;;;;9.52;6.15;;;12.00;69.20;;;;;;6672752;89;20217;-80
2021/03/07 11:08:14;;;;;;;8.95;5.32;;;13.00;67.10;;;;;;6665899;89;20648;-79
2021/03/07 11:18:15;;;;;;;9.95;5.40;;;13.10;66.00;;;;;;6663326;89;20191;-82
2021/03/07 11:28:16;;;;;;;7.07;5.00;;;13.90;62.90;;;;;;6693913;88;20197;-80
2021/03/07 11:38:16;;;;;;;8.10;4.82;;;14.40;60.70;;;;;;6683050;89;21041;-80
2021/03/07 11:48:17;;;;;;;6.68;4.68;;;14.20;58.90;;;;;;6698157;88;20196;-81
2021/03/07 11:58:18;;;;;;;7.80;4.95;;;14.70;56.20;;;;;;6694872;88;20217;-80
2021/03/07 12:08:18;;;;;;;8.32;4.60;;;14.60;56.30;;;;;;6696115;88;20255;-79
2021/03/07 12:18:19;;;;;;;7.00;4.00;;;14.50;58.10;;;;;;6698311;88;20246;-81
2021/03/07 12:28:20;;;;;;;6.68;4.22;;;15.30;55.00;;;;;;6697161;88;20936;-80
2021/03/07 12:38:20;;;;;;;6.53;4.20;;;14.70;54.50;;;;;;6682997;89;20172;-79
2021/03/07 12:48:21;;;;;;;7.37;4.00;;;15.20;52.00;;;;;;6679535;89;20201;-83
2021/03/07 12:58:22;;;;;;;7.10;4.70;;;15.50;48.20;;;;;;6674528;89;20495;-79
2021/03/07 13:08:22;;;;;;;9.52;6.25;;;17.30;46.50;;;;;;6686519;88;20190;-78
2021/03/07 13:18:23;;;;;;;7.87;5.20;;;17.90;47.00;;;;;;6691177;88;20237;-79
2021/03/07 13:28:24;;;;;;;8.00;5.18;;;17.80;44.90;;;;;;6673584;89;20963;-78
2021/03/07 13:38:24;;;;;;;8.80;5.32;;;19.00;44.20;;;;;;6687448;88;20227;-80
2021/03/07 13:48:25;;;;;;;7.68;5.40;;;16.40;46.30;;;;;;6696498;88;20192;-77
2021/03/07 13:58:25;;;;;;;8.45;5.97;;;16.40;46.10;;;;;;6686506;88;20221;-79
2021/03/07 14:08:26;;;;;;;8.90;6.47;;;15.30;49.50;;;;;;6694871;88;21201;-80
2021/03/07 14:18:26;;;;;;;10.77;6.62;;;16.80;47.90;;;;;;6697567;88;20235;-78
2021/03/07 14:28:27;;;;;;;8.90;6.10;;;16.70;47.30;;;;;;6679405;88;20247;-79
2021/03/07 14:38:27;;;;;;;10.48;7.57;;;15.20;50.40;;;;;;6669512;89;20636;-80
2021/03/07 14:48:28;;;;;;;11.65;7.55;;;13.40;54.80;;;;;;6678273;88;20187;-80
2021/03/07 14:58:29;;;;;;;8.50;6.65;;;13.70;55.10;;;;;;6667845;89;20241;-81
2021/03/07 15:08:30;;;;;;;11.35;6.57;;;12.40;57.10;;;;;;6662400;89;20179;-81
2021/03/07 15:18:30;;;;;;;9.35;6.55;;;12.30;58.10;;;;;;6669651;89;20223;-80
2021/03/07 15:28:31;;;;;;;11.70;6.78;;;12.40;57.40;;;;;;6667897;89;20194;-80
2021/03/07 15:38:32;;;;;;;11.80;7.20;;;11.50;59.70;;;;;;6672572;89;20280;-81
2021/03/07 15:48:33;;;;;;;11.82;6.85;;;11.20;59.50;;;;;;6667056;89;20601;-80
2021/03/07 15:58:33;;;;;;;12.48;7.97;;;11.00;61.30;;;;;;6661900;89;20236;-78
2021/03/07 16:08:34;;;;;;;12.68;8.23;;;10.50;62.30;;;;;;6663243;89;20219;-80
2021/03/07 16:18:34;;;;;;;12.35;8.13;;;10.10;63.20;;;;;;6661098;89;20235;-78
2021/03/07 16:28:35;;;;;;;14.57;8.48;;;9.40;65.10;;;;;;6664002;89;20285;-78
2021/03/07 16:38:35;;;;;;;13.38;8.73;;;8.80;67.30;;;;;;6679103;88;20177;-82
2021/03/07 16:48:36;;;;;;;12.60;8.75;;;8.40;67.50;;;;;;6689116;89;20259;-80
2021/03/07 16:58:37;;;;;;;14.02;8.18;;;8.10;68.10;;;;;;6689700;88;20953;-83
2021/03/07 17:08:40;;;;;;;12.18;7.45;;;7.60;70.40;;;;;;6693259;88;20178;-81
2021/03/07 17:18:40;;;;;;;10.15;6.45;;;7.30;69.80;;;;;;6694720;88;20228;-82
2021/03/07 17:38:45;;;;;;;10.43;5.95;;;6.00;76.00;;;;;;6710648;88;20215;-79
2021/03/07 17:48:46;;;;;;;7.68;4.95;;;5.50;80.80;;;;;;6700902;88;20755;-79
2021/03/07 17:58:46;;;;;;;8.18;4.80;;;5.10;85.60;;;;;;6693306;88;20212;-80
2021/03/07 18:08:47;;;;;;;6.97;4.07;;;4.70;90.10;;;;;;6704258;88;20501;-80
2021/03/07 18:18:47;;;;;;;6.35;3.35;;;4.60;90.80;;;;;;6699577;88;20206;-78
2021/03/07 18:28:49;;;;;;;6.93;3.70;;;4.30;92.00;;;;;;6692181;88;20653;-78
2021/03/07 18:38:50;;;;;;;6.32;3.25;;;4.20;92.90;;;;;;6700007;88;21113;-78
2021/03/07 18:48:50;;;;;;;6.78;3.60;;;3.90;94.20;;;;;;6703023;88;20191;-76
2021/03/07 18:58:51;;;;;;;9.05;4.18;;;3.90;95.50;;;;;;6727856;88;20191;-82
2021/03/07 19:08:52;;;;;;;7.35;4.47;;;3.80;96.50;;;;;;6676696;89;20171;-81
2021/03/07 19:18:53;;;;;;;9.80;4.35;;;3.40;98.20;;;;;;6683874;88;20313;-81
2021/03/07 19:49:41;;;;;;;10.75;4.25;;;2.80;99.90;;;;;;6942610;77;20272;-77
2021/03/07 19:59:42;;;;;;;7.18;4.32;;;2.60;99.90;;;;;;6703906;88;20619;-83
2021/03/07 20:09:42;;;;;;;8.50;4.53;;;2.50;99.90;;;;;;6701149;88;20167;-82
2021/03/07 20:19:43;;;;;;;9.07;4.62;;;2.30;99.90;;;;;;6708045;88;20489;-80
2021/03/07 20:29:44;;;;;;;9.50;5.40;;;2.30;99.90;;;;;;6702673;88;20217;-81
2021/03/07 20:39:44;;;;;;;9.70;5.10;;;2.20;99.90;;;;;;6705794;88;20171;-81
2021/03/07 20:49:45;;;;;;;9.30;4.87;;;2.00;99.90;;;;;;6707229;88;20227;-79
2021/03/07 20:59:47;;;;;;;11.18;5.60;;;1.90;99.90;;;;;;6705523;88;20279;-79
2021/03/07 21:09:47;;;;;;;9.57;5.28;;;1.80;99.90;;;;;;6711229;88;20196;-80
2021/03/07 21:19:48;;;;;;;12.95;6.20;;;1.70;99.90;;;;;;6703846;88;20207;-80
2021/03/07 21:29:49;;;;;;;11.07;5.78;;;1.60;99.90;;;;;;6693226;88;20190;-79
2021/03/07 21:39:49;;;;;;;11.07;5.45;;;1.50;99.90;;;;;;6694616;88;20265;-79
2021/03/07 21:49:50;;;;;;;11.23;5.85;;;1.40;99.90;;;;;;6689699;88;20315;-79
2021/03/07 21:59:50;;;;;;;11.30;5.90;;;1.50;99.90;;;;;;6692545;88;20528;-80
2021/03/07 22:09:51;;;;;;;11.35;5.37;;;1.40;99.90;;;;;;6692815;88;20265;-79
2021/03/07 22:19:51;;;;;;;21.00;7.50;;;1.50;99.90;;;;;;6688289;88;20282;-80
2021/03/07 22:29:52;;;;;;;17.50;6.18;;;1.50;99.90;;;;;;6692517;88;20262;-79
2021/03/07 22:39:52;;;;;;;13.15;6.07;;;1.70;99.90;;;;;;6693022;88;20328;-80
2021/03/07 22:49:53;;;;;;;12.18;5.75;;;1.80;99.90;;;;;;6712945;88;20162;-80
2021/03/07 22:59:53;;;;;;;10.48;5.37;;;2.10;99.90;;;;;;6712610;88;20764;-80
2021/03/07 23:09:54;;;;;;;10.85;5.50;;;2.30;99.90;;;;;;6710637;88;20180;-80
2021/03/07 23:19:54;;;;;;;10.10;5.00;;;2.00;99.90;;;;;;6714271;88;20665;-80
2021/03/07 23:29:55;;;;;;;11.82;5.00;;;1.80;99.90;;;;;;6717202;88;20445;-80
2021/03/07 23:39:55;;;;;;;10.27;5.35;;;1.60;99.90;;;;;;6716750;88;20199;-81
2021/03/07 23:49:56;;;;;;;10.60;5.03;;;1.50;99.90;;;;;;6715117;88;20210;-81
2021/03/07 23:59:57;;;;;;;10.27;5.22;;;1.20;99.90;;;;;;6715397;88;20299;-80
